createdAt,value
2018-09-20T00:01:16.444Z,17.10
2018-09-20T00:03:45.316Z,17.10
2018-09-20T00:06:13.961Z,17.20
2018-09-20T00:08:43.095Z,17.20
2018-09-20T00:11:12.236Z,17.10
2018-09-20T00:13:41.005Z,17.20
2018-09-20T00:16:10.372Z,17.20
2018-09-20T00:18:39.273Z,17.20
2018-09-20T00:21:08.342Z,17.20
2018-09-20T00:23:37.663Z,17.30
2018-09-20T00:26:07.361Z,17.30
2018-09-20T00:28:36.776Z,17.30
2018-09-20T00:31:05.574Z,17.30
2018-09-20T00:33:34.307Z,17.30
2018-09-20T00:36:05.537Z,17.30
2018-09-20T00:38:34.945Z,17.30
2018-09-20T00:41:05.469Z,17.30
2018-09-20T00:43:35.145Z,17.30
2018-09-20T00:46:03.908Z,17.30
2018-09-20T00:48:33.223Z,17.30
2018-09-20T00:51:02.056Z,17.30
2018-09-20T00:53:32.055Z,17.20
2018-09-20T00:56:01.419Z,17.20
2018-09-20T00:58:30.043Z,17.20
2018-09-20T01:00:58.670Z,17.30
2018-09-20T01:03:27.286Z,17.30
2018-09-20T01:05:56.205Z,17.30
2018-09-20T01:08:25.463Z,17.30
2018-09-20T01:10:54.252Z,17.30
2018-09-20T01:13:23.078Z,17.40
2018-09-20T01:15:55.345Z,17.40
2018-09-20T01:18:25.100Z,17.40
2018-09-20T01:20:55.304Z,17.40
2018-09-20T01:23:25.693Z,17.40
2018-09-20T01:25:54.361Z,17.40
2018-09-20T01:28:23.372Z,17.40
2018-09-20T01:30:52.205Z,17.30
2018-09-20T01:33:21.001Z,17.30
2018-09-20T01:35:50.413Z,17.30
2018-09-20T01:38:19.410Z,17.30
2018-09-20T01:40:48.215Z,17.20
2018-09-20T01:43:16.998Z,17.20
2018-09-20T01:46:01.584Z,17.30
2018-09-20T01:48:30.236Z,17.30
2018-09-20T01:50:59.284Z,17.30
2018-09-20T01:53:28.264Z,17.30
2018-09-20T01:56:01.700Z,17.30
2018-09-20T01:58:33.392Z,17.30
2018-09-20T02:01:02.531Z,17.30
2018-09-20T02:03:32.051Z,17.30
2018-09-20T02:06:00.896Z,17.40
2018-09-20T02:08:30.392Z,17.40
2018-09-20T02:11:00.245Z,17.40
2018-09-20T02:13:30.496Z,17.40
2018-09-20T02:15:59.393Z,17.50
2018-09-20T02:18:28.464Z,17.50
2018-09-20T02:20:57.540Z,17.50
2018-09-20T02:23:26.532Z,17.50
2018-09-20T02:25:56.572Z,17.50
2018-09-20T02:28:32.068Z,17.50
2018-09-20T02:31:03.422Z,17.50
2018-09-20T02:33:32.221Z,17.50
2018-09-20T02:36:00.994Z,17.40
2018-09-20T02:38:29.755Z,17.40
2018-09-20T02:40:58.819Z,17.40
2018-09-20T02:43:28.617Z,17.40
2018-09-20T02:45:57.467Z,17.40
2018-09-20T02:48:26.503Z,17.40
2018-09-20T02:50:55.362Z,17.40
2018-09-20T02:53:24.145Z,17.40
2018-09-20T02:55:53.231Z,17.50
2018-09-20T02:58:23.083Z,17.50
2018-09-20T03:00:52.005Z,17.40
2018-09-20T03:03:20.793Z,17.50
2018-09-20T03:05:49.572Z,17.50
2018-09-20T03:08:18.660Z,17.40
2018-09-20T03:10:47.412Z,17.50
2018-09-20T03:13:18.712Z,17.50
2018-09-20T03:15:47.909Z,17.40
2018-09-20T03:18:16.688Z,17.50
2018-09-20T03:20:45.926Z,17.50
2018-09-20T03:23:16.363Z,17.50
2018-09-20T03:25:45.470Z,17.50
2018-09-20T03:28:14.816Z,17.40
2018-09-20T03:30:43.742Z,17.40
2018-09-20T03:33:12.680Z,17.40
2018-09-20T03:35:41.716Z,17.40
2018-09-20T03:38:11.792Z,17.40
2018-09-20T03:40:40.523Z,17.40
2018-09-20T03:43:09.949Z,17.40
2018-09-20T03:45:39.048Z,17.40
2018-09-20T03:48:08.207Z,17.40
2018-09-20T03:50:37.031Z,17.30
2018-09-20T03:53:05.797Z,17.40
2018-09-20T03:55:35.059Z,17.40
2018-09-20T03:58:04.218Z,17.30
2018-09-20T04:00:33.546Z,17.40
2018-09-20T04:03:04.032Z,17.40
2018-09-20T04:05:36.056Z,17.40
2018-09-20T04:08:06.902Z,17.40
2018-09-20T04:10:35.702Z,17.40
2018-09-20T04:13:04.579Z,17.30
2018-09-20T04:15:33.733Z,17.30
2018-09-20T04:18:03.692Z,17.30
2018-09-20T04:20:32.444Z,17.30
2018-09-20T04:23:03.153Z,17.30
2018-09-20T04:25:31.969Z,17.30
2018-09-20T04:28:00.881Z,17.40
2018-09-20T04:30:30.009Z,17.30
2018-09-20T04:32:58.813Z,17.30
2018-09-20T04:35:28.613Z,17.30
2018-09-20T04:37:58.505Z,17.30
2018-09-20T04:40:27.292Z,17.30
2018-09-20T04:42:56.053Z,17.30
2018-09-20T04:45:24.807Z,17.30
2018-09-20T04:47:53.735Z,17.20
2018-09-20T04:50:25.217Z,17.20
2018-09-20T04:52:53.974Z,17.10
2018-09-20T04:55:22.785Z,17.10
2018-09-20T04:57:51.549Z,17.10
2018-09-20T05:00:23.078Z,17.10
2018-09-20T05:02:52.117Z,17.10
2018-09-20T05:05:22.739Z,17.00
2018-09-20T05:07:51.489Z,16.90
2018-09-20T05:10:20.225Z,16.90
2018-09-20T05:12:49.253Z,16.90
2018-09-20T05:15:18.017Z,16.90
2018-09-20T05:17:48.816Z,16.90
2018-09-20T05:20:21.320Z,16.80
2018-09-20T05:22:50.497Z,16.80
2018-09-20T05:25:22.981Z,16.70
2018-09-20T05:27:51.754Z,16.70
2018-09-20T05:30:21.920Z,16.70
2018-09-20T05:32:50.728Z,16.70
2018-09-20T05:35:20.136Z,16.70
2018-09-20T05:37:50.029Z,16.70
2018-09-20T05:40:19.000Z,16.80
2018-09-20T05:42:47.749Z,16.80
2018-09-20T05:45:16.508Z,16.80
2018-09-20T05:47:45.729Z,16.80
2018-09-20T05:50:17.960Z,16.80
2018-09-20T05:52:48.089Z,16.80
2018-09-20T05:55:17.105Z,16.80
2018-09-20T05:57:46.005Z,16.80
2018-09-20T06:00:14.821Z,16.80
2018-09-20T06:02:43.963Z,16.80
2018-09-20T06:05:14.020Z,16.80
2018-09-20T06:07:42.950Z,16.80
2018-09-20T06:10:12.156Z,16.80
2018-09-20T06:12:40.965Z,16.90
2018-09-20T06:15:09.903Z,16.90
2018-09-20T06:17:39.425Z,16.80
2018-09-20T06:20:09.968Z,16.90
2018-09-20T06:22:42.090Z,16.90
2018-09-20T06:25:10.821Z,16.90
2018-09-20T06:27:39.854Z,16.90
2018-09-20T06:30:08.609Z,16.90
2018-09-20T06:32:37.867Z,16.90
2018-09-20T06:35:06.697Z,16.90
2018-09-20T06:37:35.782Z,17.00
2018-09-20T06:40:04.821Z,17.00
2018-09-20T06:42:33.655Z,17.10
2018-09-20T06:45:02.415Z,17.10
2018-09-20T06:47:31.215Z,17.10
2018-09-20T06:50:00.908Z,17.10
2018-09-20T06:52:29.693Z,17.10
2018-09-20T06:54:59.303Z,17.20
2018-09-20T06:57:32.675Z,17.20
2018-09-20T07:00:01.456Z,17.30
2018-09-20T07:02:30.369Z,17.40
2018-09-20T07:05:01.624Z,17.50
2018-09-20T07:07:30.900Z,17.40
2018-09-20T07:10:00.348Z,17.40
2018-09-20T07:12:29.552Z,17.40
2018-09-20T07:14:58.523Z,17.40
2018-09-20T07:17:27.833Z,17.40
2018-09-20T07:19:59.065Z,17.50
2018-09-20T07:22:28.305Z,17.50
2018-09-20T07:24:57.136Z,17.50
2018-09-20T07:27:25.914Z,17.50
2018-09-20T07:29:54.657Z,17.50
2018-09-20T07:32:23.596Z,17.50
2018-09-20T07:34:53.038Z,17.50
2018-09-20T07:37:22.110Z,17.50
2018-09-20T07:39:50.929Z,17.50
2018-09-20T07:42:19.822Z,17.50
2018-09-20T07:45:04.045Z,17.50
2018-09-20T07:47:33.157Z,17.50
2018-09-20T07:50:01.944Z,17.50
2018-09-20T07:52:31.132Z,17.50
2018-09-20T07:55:01.613Z,17.60
2018-09-20T07:57:31.064Z,17.60
2018-09-20T08:00:01.682Z,17.60
2018-09-20T08:02:30.561Z,17.60
2018-09-20T08:04:59.592Z,17.70
2018-09-20T08:07:29.424Z,17.70
2018-09-20T08:09:58.405Z,17.70
2018-09-20T08:12:27.697Z,17.70
2018-09-20T08:14:56.616Z,17.80
2018-09-20T08:17:25.487Z,17.80
2018-09-20T08:19:54.658Z,17.90
2018-09-20T08:22:25.148Z,17.90
2018-09-20T08:24:56.220Z,17.90
2018-09-20T08:27:25.053Z,18.00
2018-09-20T08:29:54.852Z,18.00
2018-09-20T08:32:23.660Z,18.00
2018-09-20T08:34:52.621Z,18.00
2018-09-20T08:37:22.812Z,18.00
2018-09-20T08:39:51.987Z,18.00
2018-09-20T08:42:20.783Z,18.00
2018-09-20T08:44:49.573Z,17.90
2018-09-20T08:47:18.320Z,17.90
2018-09-20T08:49:47.297Z,17.90
2018-09-20T08:52:17.251Z,17.90
2018-09-20T08:54:46.780Z,17.80
2018-09-20T08:57:15.909Z,17.80
2018-09-20T08:59:45.185Z,17.80
2018-09-20T09:02:14.024Z,17.80
2018-09-20T09:04:43.294Z,17.90
2018-09-20T09:07:13.346Z,17.90
2018-09-20T09:09:42.590Z,17.90
2018-09-20T09:12:11.411Z,17.90
2018-09-20T09:14:40.265Z,17.90
2018-09-20T09:17:09.106Z,17.90
2018-09-20T09:19:38.236Z,17.80
2018-09-20T09:22:07.088Z,17.60
2018-09-20T09:24:35.829Z,17.40
2018-09-20T09:27:05.557Z,17.40
2018-09-20T09:29:34.283Z,17.30
2018-09-20T09:32:05.096Z,17.20
2018-09-20T09:34:34.638Z,17.30
2018-09-20T09:37:03.620Z,17.30
2018-09-20T09:39:32.433Z,17.40
2018-09-20T09:42:01.305Z,17.40
2018-09-20T09:44:30.691Z,17.40
2018-09-20T09:46:59.783Z,17.40
2018-09-20T09:49:28.535Z,17.30
2018-09-20T09:51:57.632Z,17.40
2018-09-20T09:54:26.561Z,17.50
2018-09-20T09:56:55.410Z,17.50
2018-09-20T09:59:25.056Z,17.50
2018-09-20T10:01:54.743Z,17.50
2018-09-20T10:04:23.570Z,17.60
2018-09-20T10:06:52.606Z,17.60
2018-09-20T10:09:21.398Z,17.60
2018-09-20T10:11:51.192Z,17.60
2018-09-20T10:14:23.493Z,17.70
2018-09-20T10:16:54.415Z,17.70
2018-09-20T10:19:30.145Z,17.80
2018-09-20T10:22:04.644Z,17.80
2018-09-20T10:24:36.621Z,17.90
2018-09-20T10:27:05.586Z,17.80
2018-09-20T10:29:35.029Z,17.90
2018-09-20T10:32:03.823Z,17.90
2018-09-20T10:34:33.248Z,17.90
2018-09-20T10:37:02.873Z,17.90
2018-09-20T10:39:34.602Z,18.00
2018-09-20T10:42:04.673Z,18.00
2018-09-20T10:44:33.464Z,18.10
2018-09-20T10:47:02.266Z,18.10
2018-09-20T10:49:31.019Z,18.20
2018-09-20T10:52:00.486Z,18.20
2018-09-20T10:54:31.110Z,18.20
2018-09-20T10:56:59.923Z,18.30
2018-09-20T10:59:28.700Z,18.50
2018-09-20T11:01:58.119Z,18.50
2018-09-20T11:04:26.872Z,18.50
2018-09-20T11:06:55.695Z,18.60
2018-09-20T11:09:28.624Z,18.60
2018-09-20T11:11:58.873Z,18.40
2018-09-20T11:14:27.670Z,18.40
2018-09-20T11:16:56.640Z,18.40
2018-09-20T11:19:25.386Z,18.40
2018-09-20T11:21:54.492Z,18.50
2018-09-20T11:24:23.650Z,18.60
2018-09-20T11:26:54.621Z,18.60
2018-09-20T11:29:23.366Z,18.70
2018-09-20T11:31:52.212Z,18.60
2018-09-20T11:34:21.341Z,18.60
2018-09-20T11:36:50.219Z,18.70
2018-09-20T11:39:19.878Z,18.70
2018-09-20T11:41:50.487Z,18.70
2018-09-20T11:44:19.309Z,18.70
2018-09-20T11:46:48.480Z,18.60
2018-09-20T11:49:17.313Z,18.50
2018-09-20T11:51:46.600Z,18.50
2018-09-20T11:54:17.510Z,18.50
2018-09-20T11:56:46.356Z,18.50
2018-09-20T11:59:15.262Z,18.50
2018-09-20T12:01:44.060Z,18.50
2018-09-20T12:04:15.201Z,18.50
2018-09-20T12:06:44.033Z,18.60
2018-09-20T12:09:15.899Z,18.60
2018-09-20T12:11:45.035Z,18.60
2018-09-20T12:14:14.653Z,18.60
2018-09-20T12:16:43.877Z,18.60
2018-09-20T12:19:13.207Z,18.70
2018-09-20T12:21:41.966Z,18.70
2018-09-20T12:24:13.180Z,18.70
2018-09-20T12:26:42.369Z,18.70
2018-09-20T12:29:11.136Z,18.70
2018-09-20T12:31:39.893Z,18.70
2018-09-20T12:34:08.704Z,18.90
2018-09-20T12:36:39.456Z,18.80
2018-09-20T12:39:12.209Z,18.90
2018-09-20T12:41:43.176Z,18.90
2018-09-20T12:44:12.020Z,18.90
2018-09-20T12:46:40.848Z,18.90
2018-09-20T12:49:09.694Z,19.00
2018-09-20T12:51:40.206Z,19.10
2018-09-20T12:54:09.108Z,19.20
2018-09-20T12:56:39.483Z,19.10
2018-09-20T12:59:08.428Z,19.30
2018-09-20T13:01:37.284Z,19.30
2018-09-20T13:04:06.185Z,19.30
2018-09-20T13:06:35.574Z,19.30
2018-09-20T13:09:08.620Z,19.40
2018-09-20T13:11:39.819Z,19.30
2018-09-20T13:14:08.714Z,19.50
2018-09-20T13:16:37.483Z,19.60
2018-09-20T13:19:06.231Z,19.60
2018-09-20T13:21:35.179Z,19.60
2018-09-20T13:24:04.903Z,19.60
2018-09-20T13:26:36.604Z,19.60
2018-09-20T13:29:06.029Z,19.60
2018-09-20T13:31:34.792Z,19.70
2018-09-20T13:34:03.622Z,19.70
2018-09-20T13:36:32.441Z,19.70
2018-09-20T13:39:02.515Z,19.70
2018-09-20T13:41:31.313Z,19.70
2018-09-20T13:44:00.214Z,19.80
2018-09-20T13:46:29.030Z,19.90
2018-09-20T13:48:58.084Z,19.90
2018-09-20T13:51:27.293Z,19.90
2018-09-20T13:53:57.573Z,19.80
2018-09-20T13:56:26.706Z,19.80
2018-09-20T13:58:55.664Z,20.00
2018-09-20T14:01:24.770Z,20.00
2018-09-20T14:03:54.061Z,20.00
2018-09-20T14:06:22.883Z,20.00
2018-09-20T14:08:54.372Z,20.00
2018-09-20T14:11:25.025Z,19.90
2018-09-20T14:13:54.184Z,19.90
2018-09-20T14:16:23.637Z,19.90
2018-09-20T14:18:52.969Z,20.10
2018-09-20T14:21:22.392Z,20.10
2018-09-20T14:23:51.195Z,20.20
2018-09-20T14:26:21.269Z,20.10
2018-09-20T14:28:51.246Z,20.00
2018-09-20T14:31:20.163Z,20.00
2018-09-20T14:33:48.958Z,19.90
2018-09-20T14:36:21.305Z,20.00
2018-09-20T14:38:50.476Z,20.00
2018-09-20T14:41:19.496Z,20.00
2018-09-20T14:43:51.549Z,20.00
2018-09-20T14:46:22.423Z,20.10
2018-09-20T14:48:51.471Z,20.00
2018-09-20T14:51:20.272Z,20.10
2018-09-20T14:53:49.535Z,20.10
2018-09-20T14:56:18.283Z,20.20
2018-09-20T14:58:47.944Z,20.10
2018-09-20T15:01:19.277Z,20.00
2018-09-20T15:03:48.857Z,20.00
2018-09-20T15:06:18.372Z,19.90
2018-09-20T15:08:47.619Z,20.00
2018-09-20T15:11:16.670Z,20.00
2018-09-20T15:13:45.439Z,20.00
2018-09-20T15:16:14.909Z,20.00
2018-09-20T15:18:45.207Z,20.10
2018-09-20T15:21:48.204Z,20.00
2018-09-20T15:24:18.452Z,20.00
2018-09-20T15:26:47.205Z,19.90
2018-09-20T15:29:16.049Z,19.80
2018-09-20T15:31:44.918Z,19.80
2018-09-20T15:34:15.066Z,19.80
2018-09-20T15:36:44.019Z,19.90
2018-09-20T15:39:13.637Z,19.90
2018-09-20T15:41:42.445Z,20.00
2018-09-20T15:44:12.252Z,19.90
2018-09-20T15:46:42.754Z,20.00
2018-09-20T15:49:11.695Z,20.00
2018-09-20T15:51:41.358Z,20.00
2018-09-20T15:54:10.313Z,19.90
2018-09-20T15:56:39.719Z,19.90
2018-09-20T15:59:09.007Z,19.80
2018-09-20T16:01:37.901Z,19.80
2018-09-20T16:04:08.581Z,19.80
2018-09-20T16:06:39.482Z,19.80
2018-09-20T16:09:10.594Z,19.70
2018-09-20T16:11:39.804Z,19.70
2018-09-20T16:14:08.931Z,19.70
2018-09-20T16:16:38.349Z,19.60
2018-09-20T16:19:07.252Z,19.50
2018-09-20T16:21:39.422Z,19.50
2018-09-20T16:24:11.538Z,19.50
2018-09-20T16:26:40.381Z,19.50
2018-09-20T16:29:49.433Z,19.50
2018-09-20T16:34:36.863Z,19.40
2018-09-20T16:37:14.809Z,19.30
2018-09-20T16:39:46.264Z,19.30
2018-09-20T16:42:19.199Z,19.30
2018-09-20T16:44:49.444Z,19.30
2018-09-20T16:47:18.192Z,19.40
2018-09-20T16:49:47.097Z,19.40
2018-09-20T16:52:16.121Z,19.40
2018-09-20T16:54:45.082Z,19.40
2018-09-20T16:57:13.955Z,19.40
2018-09-20T16:59:45.319Z,19.40
2018-09-20T17:02:14.421Z,19.40
2018-09-20T17:04:43.212Z,19.40
2018-09-20T17:07:12.084Z,19.40
2018-09-20T17:09:41.297Z,19.40
2018-09-20T17:12:10.297Z,19.30
2018-09-20T17:14:39.654Z,19.30
2018-09-20T17:17:09.919Z,19.30
2018-09-20T17:19:38.772Z,19.30
2018-09-20T17:22:07.614Z,19.30
2018-09-20T17:24:36.737Z,19.30
2018-09-20T17:27:05.667Z,19.20
2018-09-20T17:29:36.150Z,19.20
2018-09-20T17:32:05.180Z,19.20
2018-09-20T17:34:34.836Z,19.20
2018-09-20T17:37:04.256Z,19.20
2018-09-20T17:39:35.081Z,19.20
2018-09-20T17:42:04.849Z,19.10
2018-09-20T17:44:33.668Z,19.10
2018-09-20T17:47:02.765Z,19.10
2018-09-20T17:49:31.780Z,19.00
2018-09-20T17:52:00.909Z,19.00
2018-09-20T17:54:30.738Z,19.00
2018-09-20T17:57:00.881Z,19.00
2018-09-20T17:59:44.866Z,19.00
2018-09-20T18:02:14.647Z,19.00
2018-09-20T18:04:43.573Z,19.00
2018-09-20T18:07:12.339Z,18.90
2018-09-20T18:09:41.078Z,18.90
2018-09-20T18:12:10.924Z,18.90
2018-09-20T18:14:40.474Z,18.90
2018-09-20T18:17:09.590Z,18.90
2018-09-20T18:19:38.398Z,18.90
2018-09-20T18:22:07.301Z,18.80
2018-09-20T18:24:36.553Z,18.80
2018-09-20T18:27:06.011Z,18.80
2018-09-20T18:29:36.742Z,18.80
2018-09-20T18:32:09.100Z,18.90
2018-09-20T18:34:37.920Z,18.90
2018-09-20T18:37:06.709Z,18.90
2018-09-20T18:39:36.080Z,18.90
2018-09-20T18:42:04.852Z,18.90
2018-09-20T18:44:35.284Z,18.90
2018-09-20T18:47:05.731Z,18.90
2018-09-20T18:49:35.155Z,18.80
2018-09-20T18:52:05.182Z,18.80
2018-09-20T18:54:34.375Z,18.80
2018-09-20T18:57:03.536Z,18.80
2018-09-20T18:59:32.755Z,18.80
2018-09-20T19:02:03.036Z,18.80
2018-09-20T19:04:32.165Z,18.80
2018-09-20T19:07:00.928Z,18.90
2018-09-20T19:09:30.153Z,18.90
2018-09-20T19:11:59.292Z,18.90
2018-09-20T19:14:28.266Z,18.90
2018-09-20T19:16:57.564Z,18.80
2018-09-20T19:19:26.847Z,18.90
2018-09-20T19:21:57.000Z,18.80
2018-09-20T19:24:26.164Z,18.90
2018-09-20T19:26:55.341Z,18.80
2018-09-20T19:29:24.096Z,18.90
2018-09-20T19:31:54.531Z,18.80
2018-09-20T19:34:23.696Z,18.70
2018-09-20T19:36:52.504Z,18.50
2018-09-20T19:39:21.907Z,18.30
2018-09-20T19:41:50.700Z,18.30
2018-09-20T19:44:19.467Z,18.30
2018-09-20T19:46:51.264Z,18.30
2018-09-20T19:49:21.233Z,18.40
2018-09-20T19:51:51.195Z,18.40
2018-09-20T19:54:20.004Z,18.30
2018-09-20T19:56:49.565Z,18.30
2018-09-20T19:59:18.432Z,18.20
2018-09-20T20:01:47.562Z,18.20
2018-09-20T20:04:19.016Z,18.20
2018-09-20T20:06:47.776Z,18.30
2018-09-20T20:09:18.368Z,18.30
2018-09-20T20:11:49.182Z,18.30
2018-09-20T20:14:18.020Z,18.40
2018-09-20T20:16:46.885Z,18.30
2018-09-20T20:19:15.872Z,18.30
2018-09-20T20:21:45.316Z,18.30
2018-09-20T20:24:14.755Z,18.30
2018-09-20T20:26:44.156Z,18.30
2018-09-20T20:29:13.832Z,18.30
2018-09-20T20:31:42.820Z,18.30
2018-09-20T20:34:12.172Z,18.30
2018-09-20T20:36:41.879Z,18.30
2018-09-20T20:39:11.900Z,18.30
2018-09-20T20:41:43.006Z,18.30
2018-09-20T20:44:12.357Z,18.30
2018-09-20T20:46:41.206Z,18.30
2018-09-20T20:49:10.678Z,18.40
2018-09-20T20:51:39.663Z,18.40
2018-09-20T20:54:08.506Z,18.40
2018-09-20T20:56:39.322Z,18.40
2018-09-20T20:59:09.130Z,18.40
2018-09-20T21:01:37.929Z,18.40
2018-09-20T21:04:07.726Z,18.50
2018-09-20T21:06:40.443Z,18.40
2018-09-20T21:09:10.121Z,18.50
2018-09-20T21:11:39.138Z,18.50
2018-09-20T21:14:07.985Z,18.50
2018-09-20T21:16:37.100Z,18.50
2018-09-20T21:19:06.296Z,18.50
2018-09-20T21:21:37.739Z,18.50
2018-09-20T21:24:06.583Z,18.50
2018-09-20T21:26:35.673Z,18.60
2018-09-20T21:29:04.412Z,18.50
2018-09-20T21:31:33.292Z,18.60
2018-09-20T21:34:02.066Z,18.60
2018-09-20T21:36:33.884Z,18.60
2018-09-20T21:39:04.937Z,18.60
2018-09-20T21:41:33.757Z,18.60
2018-09-20T21:44:02.574Z,18.60
2018-09-20T21:46:31.600Z,18.60
2018-09-20T21:49:00.340Z,18.60
2018-09-20T21:51:29.324Z,18.60
2018-09-20T21:53:59.058Z,18.50
2018-09-20T21:56:27.994Z,18.40
2018-09-20T21:58:56.884Z,18.40
2018-09-20T22:01:25.951Z,18.30
2018-09-20T22:03:54.987Z,18.30
2018-09-20T22:06:23.762Z,18.20
2018-09-20T22:08:54.420Z,18.10
2018-09-20T22:11:23.192Z,18.10
2018-09-20T22:13:51.929Z,18.00
2018-09-20T22:16:20.695Z,17.90
2018-09-20T22:18:49.424Z,17.80
2018-09-20T22:21:18.181Z,17.80
2018-09-20T22:23:49.795Z,17.70
2018-09-20T22:26:18.953Z,17.60
2018-09-20T22:28:48.445Z,17.50
2018-09-20T22:31:17.912Z,17.50
2018-09-20T22:33:46.947Z,17.50
2018-09-20T22:36:15.836Z,17.50
2018-09-20T22:38:46.748Z,17.60
2018-09-20T22:41:16.654Z,17.60
2018-09-20T22:43:46.297Z,17.60
2018-09-20T22:46:15.316Z,17.60
2018-09-20T22:48:44.221Z,17.60
2018-09-20T22:51:13.274Z,17.60
2018-09-20T22:53:42.960Z,17.70
2018-09-20T22:56:14.853Z,17.70
2018-09-20T22:58:43.977Z,17.60
2018-09-20T23:01:16.656Z,17.70
2018-09-20T23:03:46.303Z,17.80
2018-09-20T23:06:15.641Z,17.80
2018-09-20T23:08:44.828Z,17.80
2018-09-20T23:11:14.581Z,17.80
2018-09-20T23:13:44.519Z,17.80
2018-09-20T23:16:16.389Z,17.80
2018-09-20T23:18:47.587Z,17.70
2018-09-20T23:21:16.969Z,17.80
2018-09-20T23:23:45.966Z,17.80
2018-09-20T23:26:15.358Z,17.80
2018-09-20T23:28:44.812Z,17.80
2018-09-20T23:31:14.255Z,17.80
2018-09-20T23:33:45.338Z,17.90
2018-09-20T23:36:16.367Z,17.90
2018-09-20T23:38:45.597Z,17.90
2018-09-20T23:41:14.877Z,18.00
2018-09-20T23:43:44.150Z,18.00
2018-09-20T23:46:12.988Z,18.10
2018-09-20T23:48:42.960Z,18.00
2018-09-20T23:51:12.962Z,18.00
2018-09-20T23:53:42.691Z,18.00
2018-09-20T23:56:11.576Z,18.00
2018-09-20T23:58:40.340Z,18.00
